createdAt,value
2023-03-21T00:01:51.652Z,12.82
2023-03-21T00:04:20.168Z,13.88
2023-03-21T00:06:47.620Z,14.50
2023-03-21T00:09:15.026Z,13.60
2023-03-21T00:11:42.883Z,13.32
2023-03-21T00:14:14.378Z,15.02
2023-03-21T00:16:45.868Z,14.55
2023-03-21T00:19:14.623Z,14.35
2023-03-21T00:22:05.864Z,15.35
2023-03-21T00:24:31.058Z,12.48
2023-03-21T00:27:12.535Z,14.15
2023-03-21T00:29:49.228Z,13.15
2023-03-21T00:32:20.058Z,13.98
2023-03-21T00:35:01.375Z,12.25
2023-03-21T00:37:36.441Z,14.82
2023-03-21T00:40:16.417Z,13.70
2023-03-21T00:42:55.459Z,14.05
2023-03-21T00:45:23.316Z,12.75
2023-03-21T00:47:50.824Z,12.23
2023-03-21T00:50:18.540Z,14.55
2023-03-21T00:52:46.311Z,13.82
2023-03-21T00:55:15.044Z,13.40
2023-03-21T00:57:45.284Z,14.77
2023-03-21T01:00:20.515Z,13.98
2023-03-21T01:03:14.217Z,11.85
2023-03-21T01:06:04.272Z,12.43
2023-03-21T01:08:53.533Z,11.23
2023-03-21T01:11:24.783Z,11.43
2023-03-21T01:13:59.736Z,11.63
2023-03-21T01:16:32.789Z,13.60
2023-03-21T01:19:01.973Z,12.07
2023-03-21T01:21:30.145Z,10.93
2023-03-21T01:23:57.886Z,12.50
2023-03-21T01:26:25.432Z,13.23
2023-03-21T01:28:52.847Z,11.23
2023-03-21T01:31:20.995Z,12.35
2023-03-21T01:33:48.578Z,11.88
2023-03-21T01:36:23.803Z,13.48
2023-03-21T01:38:53.597Z,12.82
2023-03-21T01:41:42.644Z,12.43
2023-03-21T01:44:16.331Z,12.88
2023-03-21T01:47:09.684Z,16.17
2023-03-21T01:49:41.802Z,11.38
2023-03-21T01:52:20.910Z,12.48
2023-03-21T01:54:49.161Z,12.77
2023-03-21T01:57:27.801Z,12.23
2023-03-21T02:00:12.387Z,11.38
2023-03-21T02:03:11.668Z,13.70
2023-03-21T02:06:01.279Z,14.00
2023-03-21T02:08:39.185Z,11.50
2023-03-21T02:11:10.144Z,12.27
2023-03-21T02:13:38.015Z,12.23
2023-03-21T02:16:31.637Z,14.05
2023-03-21T02:19:10.144Z,12.17
2023-03-21T02:21:40.345Z,12.43
2023-03-21T02:24:33.383Z,12.73
2023-03-21T02:27:18.647Z,11.73
2023-03-21T02:30:20.191Z,10.20
2023-03-21T02:33:11.571Z,9.90
2023-03-21T02:36:02.980Z,10.63
2023-03-21T02:38:43.781Z,12.75
2023-03-21T02:41:21.275Z,13.40
2023-03-21T02:44:14.350Z,13.70
2023-03-21T02:46:59.735Z,12.15
2023-03-21T02:49:49.685Z,10.60
2023-03-21T02:52:39.822Z,11.30
2023-03-21T02:55:14.168Z,12.13
2023-03-21T03:00:33.037Z,12.10
2023-03-21T03:03:33.033Z,12.65
2023-03-21T03:06:03.617Z,11.77
2023-03-21T03:08:56.069Z,10.98
2023-03-21T03:11:42.561Z,13.85
2023-03-21T03:14:38.465Z,12.80
2023-03-21T03:17:11.543Z,10.70
2023-03-21T03:20:04.302Z,13.70
2023-03-21T03:22:46.700Z,10.70
2023-03-21T03:25:29.815Z,10.70
2023-03-21T03:28:06.772Z,10.63
2023-03-21T03:30:44.677Z,11.63
2023-03-21T03:33:44.669Z,10.98
2023-03-21T03:36:30.464Z,10.25
2023-03-21T03:39:12.859Z,13.77
2023-03-21T03:42:15.258Z,11.77
2023-03-21T03:44:51.922Z,9.23
2023-03-21T03:47:50.656Z,9.80
2023-03-21T03:50:31.355Z,9.52
2023-03-21T03:53:18.408Z,12.73
2023-03-21T03:55:49.549Z,9.05
2023-03-21T03:58:24.045Z,9.88
2023-03-21T04:00:55.047Z,12.02
2023-03-21T04:03:23.288Z,11.45
2023-03-21T04:05:51.081Z,9.63
2023-03-21T04:08:18.743Z,11.65
2023-03-21T04:10:46.879Z,11.02
2023-03-21T04:13:14.646Z,11.45
2023-03-21T04:15:44.609Z,10.38
2023-03-21T04:18:12.683Z,10.27
2023-03-21T04:20:40.222Z,9.65
2023-03-21T04:23:07.996Z,9.02
2023-03-21T04:25:44.681Z,11.32
2023-03-21T04:28:18.679Z,12.02
2023-03-21T04:31:01.291Z,12.20
2023-03-21T04:33:31.598Z,9.00
2023-03-21T04:36:00.898Z,9.77
2023-03-21T04:38:31.006Z,11.90
2023-03-21T04:41:00.638Z,10.48
2023-03-21T04:43:28.792Z,9.23
2023-03-21T04:45:57.917Z,10.00
2023-03-21T04:48:26.198Z,11.10
2023-03-21T04:50:53.863Z,11.12
2023-03-21T04:53:21.287Z,10.82
2023-03-21T04:55:52.904Z,14.48
2023-03-21T04:58:21.932Z,11.07
2023-03-21T05:00:53.220Z,11.48
2023-03-21T05:03:21.928Z,10.70
2023-03-21T05:05:50.234Z,10.13
2023-03-21T05:08:19.181Z,10.50
2023-03-21T05:10:46.865Z,12.20
2023-03-21T05:13:14.844Z,12.35
2023-03-21T05:15:42.421Z,11.85
2023-03-21T05:18:13.111Z,11.02
2023-03-21T05:20:42.893Z,9.30
2023-03-21T05:23:11.912Z,11.75
2023-03-21T05:25:40.422Z,12.43
2023-03-21T05:28:09.172Z,13.20
2023-03-21T05:30:37.035Z,13.93
2023-03-21T05:33:05.090Z,10.68
2023-03-21T05:35:32.962Z,12.32
2023-03-21T05:38:00.542Z,11.40
2023-03-21T05:40:28.859Z,13.32
2023-03-21T05:42:58.425Z,14.50
2023-03-21T05:45:27.359Z,12.43
2023-03-21T05:47:54.958Z,9.95
2023-03-21T05:50:23.772Z,12.20
2023-03-21T05:52:52.279Z,12.60
2023-03-21T05:55:19.853Z,10.70
2023-03-21T05:57:47.711Z,12.18
2023-03-21T06:00:17.996Z,11.75
2023-03-21T06:02:54.050Z,11.55
2023-03-21T06:05:22.953Z,13.20
2023-03-21T06:07:52.399Z,10.02
2023-03-21T06:10:20.111Z,11.50
2023-03-21T06:12:48.023Z,10.55
2023-03-21T06:15:18.486Z,13.95
2023-03-21T06:17:46.049Z,10.35
2023-03-21T06:20:13.791Z,11.75
2023-03-21T06:22:42.207Z,13.88
2023-03-21T06:25:09.868Z,11.45
2023-03-21T06:27:37.914Z,9.70
2023-03-21T06:30:08.657Z,10.77
2023-03-21T06:32:40.875Z,10.73
2023-03-21T06:35:09.381Z,11.82
2023-03-21T06:37:38.527Z,11.12
2023-03-21T06:40:07.841Z,11.05
2023-03-21T06:42:36.368Z,15.25
2023-03-21T06:45:04.474Z,10.57
2023-03-21T06:47:32.045Z,11.75
2023-03-21T06:50:00.035Z,13.27
2023-03-21T06:52:27.865Z,11.55
2023-03-21T06:54:55.443Z,11.93
2023-03-21T06:57:23.234Z,11.25
2023-03-21T06:59:50.869Z,14.35
2023-03-21T07:02:18.532Z,10.80
2023-03-21T07:04:46.670Z,10.77
2023-03-21T07:07:14.414Z,11.02
2023-03-21T07:09:42.239Z,11.00
2023-03-21T07:12:10.583Z,10.82
2023-03-21T07:14:38.554Z,9.85
2023-03-21T07:17:05.974Z,9.40
2023-03-21T07:19:33.680Z,10.50
2023-03-21T07:22:01.547Z,10.85
2023-03-21T07:24:29.267Z,8.40
2023-03-21T07:26:57.026Z,8.60
2023-03-21T07:29:26.172Z,9.63
2023-03-21T07:31:55.555Z,10.13
2023-03-21T07:34:23.440Z,8.82
2023-03-21T07:36:50.891Z,9.13
2023-03-21T07:39:20.581Z,10.98
2023-03-21T07:41:48.283Z,8.93
2023-03-21T07:44:22.304Z,9.25
2023-03-21T07:46:53.972Z,11.73
2023-03-21T07:49:21.384Z,10.40
2023-03-21T07:51:48.800Z,10.27
2023-03-21T07:54:19.389Z,10.35
2023-03-21T07:56:46.780Z,9.48
2023-03-21T07:59:14.473Z,10.18
2023-03-21T08:01:42.129Z,11.05
2023-03-21T08:04:10.247Z,8.02
2023-03-21T08:06:37.696Z,11.15
2023-03-21T08:09:05.693Z,8.98
2023-03-21T08:11:33.680Z,8.98
2023-03-21T08:14:01.691Z,10.57
2023-03-21T08:16:29.221Z,8.77
2023-03-21T08:18:56.924Z,10.95
2023-03-21T08:21:24.335Z,10.82
2023-03-21T08:23:52.991Z,9.15
2023-03-21T08:26:21.425Z,8.93
2023-03-21T08:28:48.828Z,11.07
2023-03-21T08:31:18.293Z,12.95
2023-03-21T08:33:46.035Z,9.07
2023-03-21T08:36:13.480Z,9.48
2023-03-21T08:38:40.910Z,8.82
2023-03-21T08:41:08.605Z,8.95
2023-03-21T08:43:36.109Z,7.87
2023-03-21T08:46:04.336Z,11.30
2023-03-21T08:48:32.315Z,9.85
2023-03-21T08:51:02.812Z,9.32
2023-03-21T08:53:30.640Z,6.93
2023-03-21T08:55:58.397Z,10.07
2023-03-21T08:58:25.907Z,8.55
2023-03-21T09:00:53.306Z,11.02
2023-03-21T09:03:21.022Z,12.52
2023-03-21T09:05:48.455Z,9.57
2023-03-21T09:08:15.898Z,12.85
2023-03-21T09:10:43.632Z,9.07
2023-03-21T09:13:11.024Z,13.75
2023-03-21T09:15:39.111Z,10.25
2023-03-21T09:18:18.204Z,9.65
2023-03-21T09:20:46.732Z,10.98
2023-03-21T09:23:14.916Z,10.27
2023-03-21T09:25:43.014Z,9.73
2023-03-21T09:28:10.719Z,16.62
2023-03-21T09:30:38.468Z,11.40
2023-03-21T09:33:08.492Z,21.23
2023-03-21T09:35:36.323Z,9.43
2023-03-21T09:38:05.637Z,10.85
2023-03-21T09:40:36.022Z,9.00
2023-03-21T09:43:15.470Z,13.07
2023-03-21T09:46:10.130Z,14.57
2023-03-21T09:48:57.322Z,15.07
2023-03-21T09:51:28.469Z,10.45
2023-03-21T09:53:57.845Z,12.10
2023-03-21T09:56:26.240Z,11.00
2023-03-21T09:58:59.302Z,9.07
2023-03-21T10:01:30.110Z,7.90
2023-03-21T10:04:01.081Z,8.93
2023-03-21T10:06:30.674Z,7.97
2023-03-21T10:09:28.634Z,6.82
2023-03-21T10:12:00.929Z,8.25
2023-03-21T10:14:40.964Z,7.37
2023-03-21T10:17:33.874Z,9.68
2023-03-21T10:20:24.836Z,6.75
2023-03-21T10:22:54.884Z,11.32
2023-03-21T10:25:36.674Z,14.25
2023-03-21T10:28:07.046Z,9.63
2023-03-21T10:30:46.669Z,9.20
2023-03-21T10:33:21.629Z,7.03
2023-03-21T10:35:55.742Z,10.25
2023-03-21T10:38:25.411Z,9.48
2023-03-21T10:40:53.406Z,6.25
2023-03-21T10:43:26.980Z,9.02
2023-03-21T10:45:55.976Z,6.32
2023-03-21T10:48:24.427Z,5.72
2023-03-21T10:50:54.429Z,7.18
2023-03-21T10:53:27.943Z,5.32
2023-03-21T10:55:57.762Z,3.45
2023-03-21T10:58:36.062Z,3.85
2023-03-21T11:01:06.816Z,4.03
2023-03-21T11:03:43.682Z,3.37
2023-03-21T11:06:27.172Z,3.65
2023-03-21T11:08:57.762Z,3.90
2023-03-21T11:11:34.416Z,5.80
2023-03-21T11:14:07.219Z,3.37
2023-03-21T11:16:43.463Z,3.35
2023-03-21T11:19:39.204Z,3.62
2023-03-21T11:22:07.559Z,6.65
2023-03-21T11:24:35.958Z,5.70
2023-03-21T11:27:07.238Z,4.75
2023-03-21T11:29:40.528Z,3.65
2023-03-21T11:32:13.913Z,4.00
2023-03-21T11:34:50.650Z,6.80
2023-03-21T11:37:26.351Z,5.10
2023-03-21T11:40:14.201Z,4.47
2023-03-21T11:42:44.833Z,4.72
2023-03-21T11:45:12.805Z,4.35
2023-03-21T11:47:40.341Z,4.12
2023-03-21T11:50:33.899Z,5.60
2023-03-21T11:53:10.677Z,4.45
2023-03-21T11:56:28.702Z,3.05
2023-03-21T11:59:17.764Z,4.50
2023-03-21T12:01:52.581Z,3.35
2023-03-21T12:04:55.243Z,6.12
2023-03-21T12:07:30.666Z,4.80
2023-03-21T12:10:17.135Z,4.50
2023-03-21T12:15:29.463Z,6.07
2023-03-21T12:18:06.623Z,7.60
2023-03-21T12:20:40.541Z,5.62
2023-03-21T12:23:23.161Z,8.75
2023-03-21T12:25:57.997Z,7.32
2023-03-21T12:28:33.230Z,7.78
2023-03-21T12:31:20.228Z,6.62
2023-03-21T12:33:56.967Z,8.45
2023-03-21T12:36:37.102Z,6.18
2023-03-21T12:39:11.360Z,6.45
2023-03-21T12:42:08.158Z,7.07
2023-03-21T12:44:46.078Z,5.18
2023-03-21T12:47:16.833Z,7.37
2023-03-21T12:49:54.020Z,6.85
2023-03-21T12:52:30.883Z,4.85
2023-03-21T12:55:18.055Z,4.03
2023-03-21T12:57:57.179Z,4.68
2023-03-21T13:00:46.912Z,5.05
2023-03-21T13:03:30.552Z,5.35
2023-03-21T13:06:06.533Z,4.45
2023-03-21T13:08:34.209Z,4.28
2023-03-21T13:11:02.084Z,4.55
2023-03-21T13:13:49.582Z,5.75
2023-03-21T13:16:37.212Z,8.98
2023-03-21T13:19:23.222Z,4.80
2023-03-21T13:24:20.185Z,4.12
2023-03-21T13:27:16.601Z,3.62
2023-03-21T13:29:49.723Z,2.95
2023-03-21T13:32:20.465Z,5.00
2023-03-21T13:34:55.942Z,4.70
2023-03-21T13:37:25.842Z,4.15
2023-03-21T13:39:53.983Z,3.37
2023-03-21T13:42:31.800Z,3.42
2023-03-21T13:45:02.465Z,3.20
2023-03-21T13:47:36.337Z,4.87
2023-03-21T13:50:19.431Z,3.58
2023-03-21T13:53:02.169Z,4.20
2023-03-21T13:55:36.547Z,5.45
2023-03-21T13:58:37.931Z,4.22
2023-03-21T14:01:28.873Z,2.53
2023-03-21T14:03:59.566Z,2.37
2023-03-21T14:06:34.080Z,3.05
2023-03-21T14:09:03.403Z,2.05
2023-03-21T14:11:32.891Z,2.67
2023-03-21T14:14:01.529Z,2.58
2023-03-21T14:16:29.936Z,4.32
2023-03-21T14:19:02.323Z,6.07
2023-03-21T14:21:32.673Z,5.35
2023-03-21T14:24:12.470Z,5.37
2023-03-21T14:26:46.374Z,4.05
2023-03-21T14:29:26.113Z,4.78
2023-03-21T14:31:56.362Z,3.85
2023-03-21T14:34:26.194Z,3.05
2023-03-21T14:36:58.648Z,4.30
2023-03-21T14:39:31.582Z,6.35
2023-03-21T14:42:12.211Z,5.55
2023-03-21T14:44:55.327Z,3.67
2023-03-21T14:47:27.437Z,6.22
2023-03-21T14:49:55.285Z,2.92
2023-03-21T14:52:34.199Z,3.90
2023-03-21T14:55:05.925Z,4.57
2023-03-21T14:57:33.449Z,3.87
2023-03-21T15:00:13.402Z,3.95
2023-03-21T15:02:46.448Z,6.60
2023-03-21T15:05:19.823Z,5.35
2023-03-21T15:07:59.119Z,6.65
2023-03-21T15:10:29.102Z,4.20
2023-03-21T15:12:59.041Z,3.83
2023-03-21T15:15:28.361Z,4.30
2023-03-21T15:18:00.722Z,3.58
2023-03-21T15:20:31.616Z,3.65
2023-03-21T15:23:03.622Z,4.95
2023-03-21T15:25:34.430Z,4.37
2023-03-21T15:28:02.234Z,5.53
2023-03-21T15:30:31.866Z,6.93
2023-03-21T15:33:06.405Z,4.85
2023-03-21T15:35:43.847Z,4.35
2023-03-21T15:38:33.629Z,5.10
2023-03-21T15:41:37.621Z,5.05
2023-03-21T15:44:13.580Z,7.80
2023-03-21T15:46:50.899Z,5.53
2023-03-21T15:49:30.331Z,6.87
2023-03-21T15:52:10.015Z,5.85
2023-03-21T15:54:55.814Z,8.10
2023-03-21T15:57:25.343Z,4.12
2023-03-21T16:00:21.163Z,6.30
2023-03-21T16:02:54.882Z,9.95
2023-03-21T16:05:22.645Z,7.28
2023-03-21T16:07:51.271Z,9.60
2023-03-21T16:10:49.082Z,6.37
2023-03-21T16:13:17.607Z,6.18
2023-03-21T16:15:46.916Z,5.30
2023-03-21T16:18:19.535Z,5.25
2023-03-21T16:20:49.148Z,5.32
2023-03-21T16:23:16.586Z,7.70
2023-03-21T16:25:44.281Z,5.75
2023-03-21T16:28:16.564Z,6.95
2023-03-21T16:30:44.530Z,5.95
2023-03-21T16:33:13.468Z,4.85
2023-03-21T16:35:41.472Z,7.32
2023-03-21T16:38:10.640Z,8.30
2023-03-21T16:40:41.948Z,4.90
2023-03-21T16:43:10.838Z,9.05
2023-03-21T16:45:38.900Z,6.00
2023-03-21T16:48:09.039Z,8.23
2023-03-21T16:50:41.268Z,7.28
2023-03-21T16:53:09.603Z,8.02
2023-03-21T16:55:37.590Z,5.75
2023-03-21T16:58:06.477Z,5.97
2023-03-21T17:00:34.865Z,5.55
2023-03-21T17:03:13.267Z,4.60
2023-03-21T17:05:41.462Z,5.68
2023-03-21T17:08:14.902Z,6.37
2023-03-21T17:10:44.043Z,4.53
2023-03-21T17:13:12.154Z,7.07
2023-03-21T17:15:42.177Z,6.07
2023-03-21T17:18:10.716Z,8.63
2023-03-21T17:20:40.286Z,10.65
2023-03-21T17:23:08.465Z,5.55
2023-03-21T17:25:36.209Z,7.28
2023-03-21T17:28:04.130Z,5.90
2023-03-21T17:30:34.891Z,5.87
2023-03-21T17:33:02.818Z,7.85
2023-03-21T17:35:30.457Z,7.65
2023-03-21T17:37:59.085Z,6.30
2023-03-21T17:40:30.378Z,7.00
2023-03-21T17:42:59.462Z,5.60
2023-03-21T17:45:34.064Z,7.47
2023-03-21T17:48:02.068Z,6.25
2023-03-21T17:50:34.824Z,6.78
2023-03-21T17:53:05.995Z,5.35
2023-03-21T17:55:35.276Z,5.43
2023-03-21T17:58:06.544Z,9.13
2023-03-21T18:00:36.103Z,7.97
2023-03-21T18:03:07.228Z,6.30
2023-03-21T18:05:34.955Z,7.30
2023-03-21T18:08:12.104Z,5.35
2023-03-21T18:10:42.153Z,7.30
2023-03-21T18:13:10.267Z,8.20
2023-03-21T18:15:44.799Z,10.93
2023-03-21T18:18:14.749Z,9.48
2023-03-21T18:20:53.432Z,10.45
2023-03-21T18:23:24.503Z,9.77
2023-03-21T18:25:53.111Z,10.00
2023-03-21T18:28:25.380Z,10.50
2023-03-21T18:31:08.495Z,9.80
2023-03-21T18:33:40.697Z,14.80
2023-03-21T18:36:11.047Z,8.43
2023-03-21T18:38:41.409Z,9.13
2023-03-21T18:41:10.706Z,9.88
2023-03-21T18:44:05.267Z,10.60
2023-03-21T18:46:34.566Z,9.35
2023-03-21T18:49:42.266Z,12.15
2023-03-21T18:51:53.168Z,15.50
2023-03-21T18:54:22.389Z,10.80
2023-03-21T18:59:41.607Z,11.38
2023-03-21T19:02:18.859Z,10.93
2023-03-21T19:04:52.028Z,11.50
2023-03-21T19:07:22.178Z,10.05
2023-03-21T19:10:15.368Z,13.20
2023-03-21T19:12:44.171Z,10.00
2023-03-21T19:15:19.989Z,9.63
2023-03-21T19:20:45.672Z,10.15
2023-03-21T19:23:17.724Z,12.25
2023-03-21T19:25:49.778Z,11.18
2023-03-21T19:28:18.119Z,9.35
2023-03-21T19:30:50.225Z,12.70
2023-03-21T19:33:21.822Z,14.52
2023-03-21T19:36:10.648Z,12.77
2023-03-21T19:38:41.620Z,10.10
2023-03-21T19:41:10.359Z,10.23
2023-03-21T19:43:40.253Z,10.88
2023-03-21T19:46:14.776Z,13.73
2023-03-21T19:48:44.821Z,13.40
2023-03-21T19:51:27.356Z,15.85
2023-03-21T19:53:59.724Z,10.35
2023-03-21T19:56:31.631Z,10.65
2023-03-21T19:59:06.093Z,11.27
2023-03-21T20:01:36.132Z,9.88
2023-03-21T20:04:06.664Z,9.15
2023-03-21T20:06:39.072Z,10.00
2023-03-21T20:12:06.700Z,9.75
2023-03-21T20:14:36.142Z,11.52
2023-03-21T20:17:05.031Z,9.80
2023-03-21T20:19:37.104Z,13.23
2023-03-21T20:22:20.138Z,9.52
2023-03-21T20:24:57.874Z,14.38
2023-03-21T20:27:26.304Z,10.63
2023-03-21T20:30:10.779Z,10.82
2023-03-21T20:32:42.602Z,13.10
2023-03-21T20:35:47.908Z,11.38
2023-03-21T20:38:10.265Z,10.25
2023-03-21T20:40:39.456Z,9.63
2023-03-21T20:43:55.648Z,8.27
2023-03-21T20:46:03.560Z,8.38
2023-03-21T20:48:33.274Z,13.25
2023-03-21T20:51:39.257Z,9.70
2023-03-21T20:53:55.786Z,8.75
2023-03-21T20:56:26.207Z,9.13
2023-03-21T20:59:14.542Z,8.98
2023-03-21T21:01:51.759Z,10.05
2023-03-21T21:04:41.172Z,8.85
2023-03-21T21:07:17.770Z,12.02
2023-03-21T21:09:47.306Z,10.55
2023-03-21T21:12:19.607Z,9.65
2023-03-21T21:14:49.624Z,12.25
2023-03-21T21:18:01.970Z,10.20
2023-03-21T21:20:17.748Z,10.43
2023-03-21T21:22:58.525Z,9.52
2023-03-21T21:25:27.621Z,9.90
2023-03-21T21:27:56.788Z,10.98
2023-03-21T21:30:24.798Z,10.60
2023-03-21T21:32:52.752Z,11.02
2023-03-21T21:35:22.614Z,12.13
2023-03-21T21:37:51.641Z,12.57
2023-03-21T21:40:20.827Z,11.80
2023-03-21T21:42:49.018Z,10.30
2023-03-21T21:45:18.314Z,9.52
2023-03-21T21:47:46.504Z,11.30
2023-03-21T21:50:14.563Z,11.07
2023-03-21T21:52:43.989Z,9.60
2023-03-21T21:55:14.307Z,13.50
2023-03-21T21:57:43.223Z,10.98
2023-03-21T22:00:13.579Z,10.52
2023-03-21T22:02:42.477Z,10.18
2023-03-21T22:05:10.568Z,10.18
2023-03-21T22:07:38.119Z,10.80
2023-03-21T22:10:06.874Z,11.68
2023-03-21T22:12:34.507Z,12.02
2023-03-21T22:15:02.838Z,12.43
2023-03-21T22:17:31.104Z,13.10
2023-03-21T22:20:06.000Z,10.65
2023-03-21T22:22:34.932Z,10.40
2023-03-21T22:25:03.635Z,12.27
2023-03-21T22:27:32.079Z,11.82
2023-03-21T22:30:04.477Z,11.80
2023-03-21T22:32:37.659Z,11.70
2023-03-21T22:35:07.203Z,11.50
2023-03-21T22:37:36.513Z,11.02
2023-03-21T22:40:08.650Z,11.65
2023-03-21T22:42:37.376Z,12.25
2023-03-21T22:45:06.160Z,10.48
2023-03-21T22:47:34.042Z,10.50
2023-03-21T22:50:02.457Z,10.75
2023-03-21T22:52:29.984Z,12.73
2023-03-21T22:54:57.383Z,10.27
2023-03-21T22:57:25.600Z,13.77
2023-03-21T22:59:53.036Z,13.80
2023-03-21T23:02:20.687Z,11.90
2023-03-21T23:04:48.476Z,12.10
2023-03-21T23:07:16.714Z,12.15
2023-03-21T23:09:44.310Z,15.55
2023-03-21T23:12:12.364Z,10.93
2023-03-21T23:14:39.840Z,10.77
2023-03-21T23:17:07.257Z,11.68
2023-03-21T23:19:34.944Z,13.62
2023-03-21T23:22:02.334Z,12.70
2023-03-21T23:24:29.902Z,13.75
2023-03-21T23:26:57.628Z,12.15
2023-03-21T23:29:25.254Z,12.50
2023-03-21T23:31:52.880Z,14.55
2023-03-21T23:34:21.198Z,14.93
2023-03-21T23:36:48.798Z,10.38
2023-03-21T23:39:18.615Z,12.05
2023-03-21T23:41:46.593Z,12.50
2023-03-21T23:44:15.298Z,14.75
2023-03-21T23:46:42.917Z,13.77
2023-03-21T23:49:10.678Z,12.82
2023-03-21T23:51:38.142Z,13.15
2023-03-21T23:54:06.123Z,13.95
2023-03-21T23:56:34.316Z,12.68
2023-03-21T23:59:01.875Z,14.80
